createdAt,value
2019-03-31T00:01:52.947Z,100687.59
2019-03-31T00:06:55.604Z,100686.81
2019-03-31T00:11:58.431Z,100693.43
2019-03-31T00:17:00.987Z,100688.40
2019-03-31T00:22:03.833Z,100695.78
2019-03-31T00:27:06.516Z,100690.28
2019-03-31T00:32:09.317Z,100690.97
2019-03-31T00:37:11.969Z,100695.32
2019-03-31T00:42:14.630Z,100693.84
2019-03-31T00:47:17.337Z,100694.47
2019-03-31T00:52:19.973Z,100684.73
2019-03-31T00:57:24.060Z,100690.40
2019-03-31T01:02:30.309Z,100692.62
2019-03-31T01:07:33.221Z,100694.13
2019-03-31T01:12:36.323Z,100694.34
2019-03-31T01:17:39.020Z,100696.39
2019-03-31T01:22:41.699Z,100695.29
2019-03-31T01:27:45.673Z,100694.31
2019-03-31T01:32:48.799Z,100689.13
2019-03-31T01:37:52.812Z,100696.45
2019-03-31T01:42:55.708Z,100695.14
2019-03-31T01:47:58.316Z,100697.81
2019-03-31T01:53:00.934Z,100703.97
2019-03-31T01:58:03.743Z,100707.27
2019-03-31T02:03:06.381Z,100706.77
2019-03-31T02:08:09.247Z,100701.96
2019-03-31T02:13:11.953Z,100706.22
2019-03-31T02:18:15.726Z,100699.53
2019-03-31T02:23:18.372Z,100708.06
2019-03-31T02:28:21.213Z,100709.05
2019-03-31T02:33:23.802Z,100713.86
2019-03-31T02:38:27.616Z,100710.93
2019-03-31T02:43:33.843Z,100708.11
2019-03-31T02:48:36.571Z,100719.02
2019-03-31T02:53:41.352Z,100719.05
2019-03-31T02:58:44.767Z,100711.86
2019-03-31T03:03:48.449Z,100724.39
2019-03-31T03:08:52.989Z,100723.25
2019-03-31T03:13:57.256Z,100719.46
2019-03-31T03:19:00.024Z,100721.03
2019-03-31T03:24:02.669Z,100728.11
2019-03-31T03:29:05.198Z,100724.69
2019-03-31T03:34:07.804Z,100732.91
2019-03-31T03:39:10.441Z,100736.36
2019-03-31T03:44:13.076Z,100741.05
2019-03-31T03:49:16.022Z,100744.85
2019-03-31T03:54:18.869Z,100745.00
2019-03-31T03:59:21.397Z,100747.28
2019-03-31T04:04:24.046Z,100745.37
2019-03-31T04:09:26.686Z,100746.34
2019-03-31T04:14:29.253Z,100742.77
2019-03-31T04:19:35.571Z,100746.61
2019-03-31T04:24:38.273Z,100750.19
2019-03-31T04:29:40.890Z,100754.98
2019-03-31T04:34:43.673Z,100753.42
2019-03-31T04:39:46.356Z,100763.34
2019-03-31T04:44:48.950Z,100771.55
2019-03-31T04:49:51.566Z,100777.86
2019-03-31T04:54:54.196Z,100784.65
2019-03-31T04:59:56.828Z,100787.95
2019-03-31T05:04:59.530Z,100787.95
2019-03-31T05:10:03.342Z,100789.86
2019-03-31T05:15:07.486Z,100801.28
2019-03-31T05:20:10.248Z,100802.13
2019-03-31T05:25:12.944Z,100810.48
2019-03-31T05:30:15.783Z,100815.02
2019-03-31T05:35:18.430Z,100822.72
2019-03-31T05:40:21.062Z,100826.64
2019-03-31T05:45:23.668Z,100829.47
2019-03-31T05:50:26.263Z,100831.83
2019-03-31T05:55:28.867Z,100834.27
2019-03-31T06:00:52.945Z,100838.53
2019-03-31T06:05:55.555Z,100845.19
2019-03-31T06:10:58.088Z,100844.41
2019-03-31T06:16:00.679Z,100849.87
2019-03-31T06:21:03.364Z,100854.11
2019-03-31T06:26:06.033Z,100860.25
2019-03-31T06:31:08.710Z,100862.94
2019-03-31T06:36:11.352Z,100864.72
2019-03-31T06:41:13.994Z,100875.42
2019-03-31T06:46:16.615Z,100880.81
2019-03-31T06:51:19.224Z,100886.39
2019-03-31T06:56:21.824Z,100893.73
2019-03-31T07:01:24.478Z,100900.97
2019-03-31T07:06:29.061Z,100915.09
2019-03-31T07:11:31.699Z,100921.45
2019-03-31T07:16:34.352Z,100919.91
2019-03-31T07:21:36.944Z,100932.52
2019-03-31T07:26:39.569Z,100935.22
2019-03-31T07:31:42.205Z,100943.10
2019-03-31T07:36:44.964Z,100943.14
2019-03-31T07:41:49.057Z,100951.09
2019-03-31T07:46:51.805Z,100954.30
2019-03-31T07:51:54.408Z,100954.88
2019-03-31T07:56:57.087Z,100966.44
2019-03-31T08:01:59.796Z,100969.75
2019-03-31T08:07:02.474Z,100978.60
2019-03-31T08:12:05.116Z,100989.27
2019-03-31T08:17:07.749Z,100995.82
2019-03-31T08:22:10.305Z,101004.38
2019-03-31T08:27:14.855Z,101013.70
2019-03-31T08:32:17.480Z,101014.64
2019-03-31T08:37:20.095Z,101021.20
2019-03-31T08:42:22.761Z,101025.39
2019-03-31T08:47:25.404Z,101033.63
2019-03-31T08:52:29.826Z,101041.31
2019-03-31T08:57:32.473Z,101052.77
2019-03-31T09:02:36.652Z,101057.85
2019-03-31T09:07:41.823Z,101063.86
2019-03-31T09:12:43.823Z,101067.59
2019-03-31T09:17:46.483Z,101082.43
2019-03-31T09:22:49.131Z,101090.11
2019-03-31T09:27:51.808Z,101087.00
2019-03-31T09:32:54.511Z,101090.66
2019-03-31T09:37:57.296Z,101084.19
2019-03-31T09:43:00.000Z,101091.96
2019-03-31T09:48:02.608Z,101090.31
2019-03-31T09:53:05.300Z,101091.94
2019-03-31T09:58:07.800Z,101093.72
2019-03-31T10:03:10.452Z,101089.47
2019-03-31T10:08:13.110Z,101089.94
2019-03-31T10:13:15.933Z,101101.78
2019-03-31T10:18:18.632Z,101098.68
2019-03-31T10:23:21.351Z,101100.07
2019-03-31T10:28:26.441Z,101098.86
2019-03-31T10:33:29.150Z,101100.38
2019-03-31T10:38:31.839Z,101098.54
2019-03-31T10:43:34.522Z,101100.31
2019-03-31T10:48:37.160Z,101113.05
2019-03-31T10:53:41.582Z,101119.58
2019-03-31T10:58:44.255Z,101107.04
2019-03-31T11:03:48.820Z,101111.30
2019-03-31T11:08:54.054Z,101117.78
2019-03-31T11:13:56.722Z,101117.03
2019-03-31T11:18:59.450Z,101122.58
2019-03-31T11:24:02.129Z,101128.78
2019-03-31T11:29:04.843Z,101123.86
2019-03-31T11:34:07.492Z,101130.59
2019-03-31T11:39:16.087Z,101129.33
2019-03-31T11:44:20.371Z,101126.38
2019-03-31T11:49:23.606Z,101129.07
2019-03-31T11:54:29.062Z,101128.66
2019-03-31T11:59:36.620Z,101134.80
2019-03-31T12:04:47.946Z,101140.46
2019-03-31T12:09:50.764Z,101144.44
2019-03-31T12:15:00.614Z,101134.16
2019-03-31T12:20:01.517Z,101134.86
2019-03-31T12:25:04.855Z,101134.01
2019-03-31T12:30:09.192Z,101123.64
2019-03-31T12:35:12.634Z,101114.45
2019-03-31T12:40:29.463Z,101114.56
2019-03-31T12:45:32.682Z,101101.80
2019-03-31T12:50:37.600Z,101103.23
2019-03-31T12:55:41.732Z,101101.08
2019-03-31T13:00:46.685Z,101100.55
2019-03-31T13:05:50.505Z,101090.64
2019-03-31T13:10:53.253Z,101098.06
2019-03-31T13:15:55.924Z,101089.72
2019-03-31T13:20:58.571Z,101089.88
2019-03-31T13:26:01.188Z,101089.75
2019-03-31T13:31:04.799Z,101085.52
2019-03-31T13:36:07.457Z,101086.56
2019-03-31T13:41:10.160Z,101095.85
2019-03-31T13:46:12.887Z,101096.48
2019-03-31T13:51:15.537Z,101087.87
2019-03-31T13:56:18.869Z,101085.53
2019-03-31T14:01:22.239Z,101090.30
2019-03-31T14:06:24.902Z,101085.49
2019-03-31T14:11:27.522Z,101093.72
2019-03-31T14:16:30.171Z,101092.30
2019-03-31T14:21:32.785Z,101094.08
2019-03-31T14:26:35.420Z,101093.39
2019-03-31T14:31:38.078Z,101097.06
2019-03-31T14:36:40.687Z,101087.05
2019-03-31T14:41:43.273Z,101084.57
2019-03-31T14:46:45.818Z,101080.27
2019-03-31T14:51:49.646Z,101091.22
2019-03-31T14:56:54.786Z,101091.91
2019-03-31T15:01:57.409Z,101093.28
2019-03-31T15:07:00.124Z,101089.27
2019-03-31T15:12:02.700Z,101093.48
2019-03-31T15:17:05.391Z,101095.77
2019-03-31T15:22:08.117Z,101097.66
2019-03-31T15:27:10.807Z,101101.17
2019-03-31T15:32:13.398Z,101105.31
2019-03-31T15:37:17.987Z,101104.29
2019-03-31T15:42:20.603Z,101101.28
2019-03-31T15:47:23.254Z,101102.92
2019-03-31T15:52:25.878Z,101105.59
2019-03-31T15:57:28.508Z,101108.55
2019-03-31T16:02:32.180Z,101099.95
2019-03-31T16:07:34.892Z,101104.95
2019-03-31T16:12:36.963Z,101105.17
2019-03-31T16:17:41.002Z,101112.07
2019-03-31T16:22:43.120Z,101110.83
2019-03-31T16:27:45.297Z,101108.52
2019-03-31T16:32:47.367Z,101103.09
2019-03-31T16:37:49.525Z,101113.62
2019-03-31T16:42:51.603Z,101110.80
2019-03-31T16:47:53.651Z,101112.58
2019-03-31T16:52:55.796Z,101111.19
2019-03-31T16:57:57.857Z,101111.30
2019-03-31T17:02:59.974Z,101106.80
2019-03-31T17:08:02.019Z,101112.98
2019-03-31T17:13:04.244Z,101110.31
2019-03-31T17:18:06.358Z,101116.41
2019-03-31T17:23:08.413Z,101119.39
2019-03-31T17:28:10.534Z,101116.48
2019-03-31T17:33:12.622Z,101124.42
2019-03-31T17:38:14.698Z,101128.06
2019-03-31T17:43:16.785Z,101124.91
2019-03-31T17:48:19.913Z,101129.52
2019-03-31T17:53:22.232Z,101133.38
2019-03-31T17:58:24.325Z,101132.83
2019-03-31T18:03:26.273Z,101139.16
2019-03-31T18:08:30.797Z,101152.64
2019-03-31T18:13:32.879Z,101157.19
2019-03-31T18:18:34.967Z,101155.42
2019-03-31T18:23:37.061Z,101160.56
2019-03-31T18:28:39.109Z,101157.34
2019-03-31T18:33:41.206Z,101169.84
2019-03-31T18:38:43.274Z,101174.38
2019-03-31T18:43:51.627Z,101179.05
2019-03-31T18:48:51.759Z,101188.45
2019-03-31T18:54:12.702Z,101188.44
2019-03-31T18:59:33.639Z,101192.47
2019-03-31T19:04:54.132Z,101202.73
2019-03-31T19:10:30.945Z,101209.61
2019-03-31T19:15:52.619Z,101212.56
2019-03-31T19:21:11.375Z,101216.47
2019-03-31T19:26:27.991Z,101215.77
2019-03-31T19:31:44.241Z,101217.41
2019-03-31T19:37:01.800Z,101223.33
2019-03-31T19:42:23.612Z,101234.17
2019-03-31T19:47:45.299Z,101234.27
2019-03-31T19:52:54.652Z,101234.95
2019-03-31T19:58:22.179Z,101244.33
2019-03-31T20:03:37.672Z,101245.37
2019-03-31T20:08:48.806Z,101249.27
2019-03-31T20:14:09.130Z,101253.91
2019-03-31T20:19:19.426Z,101252.73
2019-03-31T20:24:33.408Z,101260.55
2019-03-31T20:29:48.216Z,101253.02
2019-03-31T20:35:12.709Z,101255.06
2019-03-31T20:40:28.955Z,101260.11
2019-03-31T20:45:31.111Z,101262.55
2019-03-31T20:50:33.158Z,101271.92
2019-03-31T20:55:35.340Z,101269.36
2019-03-31T21:00:37.393Z,101276.21
2019-03-31T21:05:39.504Z,101282.98
2019-03-31T21:10:41.729Z,101281.41
2019-03-31T21:15:43.819Z,101293.70
2019-03-31T21:20:45.925Z,101292.09
2019-03-31T21:25:48.030Z,101296.69
2019-03-31T21:30:50.091Z,101299.23
2019-03-31T21:35:52.168Z,101309.39
2019-03-31T21:40:54.237Z,101301.33
2019-03-31T21:45:57.528Z,101307.93
2019-03-31T21:50:59.597Z,101311.53
2019-03-31T21:56:01.642Z,101315.47
2019-03-31T22:01:04.436Z,101316.38
2019-03-31T22:06:06.512Z,101322.54
2019-03-31T22:11:08.567Z,101319.65
2019-03-31T22:16:10.654Z,101321.07
2019-03-31T22:21:12.777Z,101329.47
2019-03-31T22:26:14.985Z,101326.33
2019-03-31T22:31:17.228Z,101333.70
2019-03-31T22:36:22.003Z,101332.05
2019-03-31T22:41:24.113Z,101337.66
2019-03-31T22:46:26.175Z,101337.37
2019-03-31T22:51:28.238Z,101335.03
2019-03-31T22:56:30.308Z,101330.00
2019-03-31T23:01:34.781Z,101333.45
2019-03-31T23:06:36.866Z,101328.70
2019-03-31T23:11:38.952Z,101331.62
2019-03-31T23:16:41.027Z,101340.64
2019-03-31T23:21:45.497Z,101343.89
2019-03-31T23:26:47.589Z,101342.97
2019-03-31T23:31:50.037Z,101343.16
2019-03-31T23:36:52.101Z,101348.16
2019-03-31T23:41:54.160Z,101350.11
2019-03-31T23:46:56.268Z,101341.62
2019-03-31T23:51:58.370Z,101345.70
2019-03-31T23:57:00.392Z,101335.73
